createdAt,value
2023-04-08T00:01:01.960Z,6.27
2023-04-08T00:04:03.665Z,4.97
2023-04-08T00:07:05.871Z,6.83
2023-04-08T00:10:07.933Z,5.37
2023-04-08T00:13:09.602Z,5.27
2023-04-08T00:16:11.151Z,5.47
2023-04-08T00:19:12.577Z,7.73
2023-04-08T00:22:13.979Z,5.87
2023-04-08T00:25:15.898Z,5.60
2023-04-08T00:28:17.285Z,9.83
2023-04-08T00:31:18.694Z,7.90
2023-04-08T00:34:20.826Z,5.87
2023-04-08T00:37:23.101Z,6.37
2023-04-08T00:40:24.564Z,6.77
2023-04-08T00:43:25.956Z,5.63
2023-04-08T00:46:27.978Z,6.73
2023-04-08T00:49:31.272Z,5.43
2023-04-08T00:52:32.728Z,6.40
2023-04-08T00:55:34.321Z,5.77
2023-04-08T00:58:35.930Z,6.13
2023-04-08T01:01:44.623Z,7.43
2023-04-08T01:04:55.836Z,7.17
2023-04-08T01:08:01.835Z,8.00
2023-04-08T01:11:05.881Z,9.67
2023-04-08T01:14:10.099Z,8.40
2023-04-08T01:17:12.341Z,8.10
2023-04-08T01:20:16.452Z,7.40
2023-04-08T01:23:24.751Z,7.50
2023-04-08T01:26:26.888Z,6.83
2023-04-08T01:29:30.606Z,7.30
2023-04-08T01:32:33.184Z,6.80
2023-04-08T01:35:35.977Z,8.97
2023-04-08T01:38:39.318Z,7.30
2023-04-08T01:41:41.253Z,8.80
2023-04-08T01:44:43.609Z,6.10
2023-04-08T01:47:49.964Z,5.97
2023-04-08T01:50:52.121Z,6.37
2023-04-08T01:53:53.600Z,7.77
2023-04-08T01:56:58.086Z,7.67
2023-04-08T02:00:03.570Z,6.00
2023-04-08T02:03:24.269Z,6.27
2023-04-08T02:06:27.588Z,5.80
2023-04-08T02:09:29.543Z,5.77
2023-04-08T02:12:33.644Z,6.20
2023-04-08T02:15:41.308Z,5.20
2023-04-08T02:18:51.462Z,7.13
2023-04-08T02:21:57.935Z,6.90
2023-04-08T02:25:01.947Z,6.27
2023-04-08T02:28:07.019Z,7.23
2023-04-08T02:31:13.397Z,7.80
2023-04-08T02:34:22.031Z,7.90
2023-04-08T02:37:23.516Z,9.10
2023-04-08T02:40:30.221Z,9.27
2023-04-08T02:43:32.285Z,8.13
2023-04-08T02:46:33.713Z,9.77
2023-04-08T02:49:37.688Z,10.27
2023-04-08T02:52:39.473Z,9.90
2023-04-08T02:55:41.000Z,9.60
2023-04-08T02:58:42.498Z,9.13
2023-04-08T03:01:43.961Z,9.67
2023-04-08T03:04:45.331Z,8.77
2023-04-08T03:07:46.713Z,12.43
2023-04-08T03:10:49.246Z,10.73
2023-04-08T03:13:50.927Z,11.10
2023-04-08T03:16:52.358Z,11.03
2023-04-08T03:19:53.764Z,11.03
2023-04-08T03:22:55.116Z,13.20
2023-04-08T03:25:56.518Z,10.80
2023-04-08T03:28:57.995Z,10.70
2023-04-08T03:31:59.466Z,11.00
2023-04-08T03:35:01.013Z,13.43
2023-04-08T03:38:02.427Z,14.47
2023-04-08T03:41:03.941Z,10.37
2023-04-08T03:44:05.392Z,14.27
2023-04-08T03:47:06.854Z,12.57
2023-04-08T03:50:08.598Z,10.87
2023-04-08T03:53:12.088Z,13.37
2023-04-08T03:56:13.469Z,11.20
2023-04-08T03:59:14.843Z,11.20
2023-04-08T04:02:16.332Z,12.37
2023-04-08T04:05:17.835Z,11.17
2023-04-08T04:08:19.482Z,11.93
2023-04-08T04:11:21.927Z,12.90
2023-04-08T04:14:23.290Z,16.33
2023-04-08T04:17:24.771Z,10.90
2023-04-08T04:20:26.394Z,11.70
2023-04-08T04:23:27.802Z,11.30
2023-04-08T04:26:29.245Z,9.90
2023-04-08T04:29:31.670Z,12.70
2023-04-08T04:32:33.062Z,12.57
2023-04-08T04:35:34.899Z,12.43
2023-04-08T04:38:36.959Z,13.40
2023-04-08T04:41:40.537Z,12.67
2023-04-08T04:44:42.438Z,10.87
2023-04-08T04:47:43.876Z,11.63
2023-04-08T04:50:53.957Z,12.80
2023-04-08T04:53:55.427Z,12.33
2023-04-08T04:56:56.837Z,10.30
2023-04-08T04:59:58.201Z,10.57
2023-04-08T05:02:59.726Z,10.87
2023-04-08T05:06:01.440Z,10.37
2023-04-08T05:09:02.843Z,9.87
2023-04-08T05:12:04.558Z,11.43
2023-04-08T05:15:06.705Z,11.60
2023-04-08T05:18:08.134Z,10.97
2023-04-08T05:21:09.605Z,8.93
2023-04-08T05:24:10.977Z,10.77
2023-04-08T05:27:12.356Z,13.37
2023-04-08T05:30:13.755Z,9.23
2023-04-08T05:33:16.257Z,9.93
2023-04-08T05:36:17.624Z,12.00
2023-04-08T05:39:19.960Z,11.37
2023-04-08T05:42:21.838Z,12.67
2023-04-08T05:45:23.220Z,10.57
2023-04-08T05:48:24.709Z,11.60
2023-04-08T05:51:26.157Z,10.90
2023-04-08T05:54:27.529Z,10.67
2023-04-08T05:57:29.545Z,10.67
2023-04-08T06:00:31.609Z,11.53
2023-04-08T06:03:33.208Z,14.17
2023-04-08T06:06:34.753Z,11.87
2023-04-08T06:09:37.065Z,13.67
2023-04-08T06:12:39.368Z,12.23
2023-04-08T06:15:40.802Z,12.47
2023-04-08T06:18:42.398Z,13.00
2023-04-08T06:21:43.756Z,12.57
2023-04-08T06:24:47.542Z,12.10
2023-04-08T06:27:49.015Z,10.83
2023-04-08T06:30:50.467Z,11.97
2023-04-08T06:33:52.346Z,10.97
2023-04-08T06:36:53.771Z,16.30
2023-04-08T06:39:55.816Z,11.03
2023-04-08T06:42:57.171Z,10.57
2023-04-08T06:46:08.771Z,10.97
2023-04-08T06:49:10.217Z,10.83
2023-04-08T06:52:13.041Z,11.97
2023-04-08T06:55:16.102Z,11.53
2023-04-08T06:58:18.061Z,9.30
2023-04-08T07:01:19.484Z,9.27
2023-04-08T07:04:21.084Z,8.67
2023-04-08T07:07:24.159Z,9.13
2023-04-08T07:10:25.881Z,9.43
2023-04-08T07:13:27.379Z,8.70
2023-04-08T07:16:29.004Z,7.77
2023-04-08T07:19:30.890Z,7.97
2023-04-08T07:22:32.356Z,9.23
2023-04-08T07:25:35.216Z,9.70
2023-04-08T07:28:36.640Z,8.40
2023-04-08T07:31:38.219Z,8.27
2023-04-08T07:34:39.604Z,9.73
2023-04-08T07:37:41.019Z,8.73
2023-04-08T07:40:43.602Z,8.53
2023-04-08T07:43:45.180Z,10.27
2023-04-08T07:46:50.771Z,8.07
2023-04-08T07:49:52.609Z,8.07
2023-04-08T07:52:54.466Z,9.97
2023-04-08T07:55:56.064Z,8.47
2023-04-08T07:58:57.828Z,9.43
2023-04-08T08:01:59.410Z,9.13
2023-04-08T08:05:03.133Z,9.70
2023-04-08T08:08:04.915Z,8.90
2023-04-08T08:11:06.504Z,9.13
2023-04-08T08:14:07.982Z,8.97
2023-04-08T08:17:09.421Z,9.70
2023-04-08T08:20:11.474Z,10.57
2023-04-08T08:23:12.884Z,9.00
2023-04-08T08:26:14.255Z,9.47
2023-04-08T08:29:15.745Z,9.10
2023-04-08T08:32:17.136Z,10.60
2023-04-08T08:35:18.590Z,9.87
2023-04-08T08:38:19.961Z,9.33
2023-04-08T08:41:21.645Z,10.50
2023-04-08T08:44:23.662Z,9.87
2023-04-08T08:47:25.266Z,10.07
2023-04-08T08:50:27.790Z,10.17
2023-04-08T08:53:32.777Z,10.07
2023-04-08T08:56:36.139Z,10.93
2023-04-08T08:59:37.783Z,8.70
2023-04-08T09:02:39.337Z,9.10
2023-04-08T09:05:54.465Z,8.90
2023-04-08T09:08:55.838Z,10.07
2023-04-08T09:12:04.423Z,11.23
2023-04-08T09:15:09.924Z,9.47
2023-04-08T09:18:22.994Z,9.30
2023-04-08T09:21:27.407Z,10.03
2023-04-08T09:24:30.895Z,8.97
2023-04-08T09:27:36.297Z,9.00
2023-04-08T09:30:37.907Z,9.57
2023-04-08T09:33:39.329Z,8.83
2023-04-08T09:36:40.895Z,10.20
2023-04-08T09:39:42.320Z,9.27
2023-04-08T09:42:50.612Z,11.07
2023-04-08T09:45:52.611Z,8.73
2023-04-08T09:49:33.740Z,10.13
2023-04-08T09:52:46.997Z,10.90
2023-04-08T09:55:53.267Z,9.87
2023-04-08T09:58:59.546Z,9.17
2023-04-08T10:02:05.694Z,10.13
2023-04-08T10:05:08.593Z,9.07
2023-04-08T10:08:10.522Z,9.60
2023-04-08T10:11:12.318Z,12.33
2023-04-08T10:14:13.698Z,9.53
2023-04-08T10:17:25.624Z,11.30
2023-04-08T10:20:36.358Z,9.77
2023-04-08T10:23:56.364Z,8.90
2023-04-08T10:26:58.008Z,10.83
2023-04-08T10:29:59.375Z,9.73
2023-04-08T10:33:01.374Z,10.00
2023-04-08T10:36:13.326Z,9.20
2023-04-08T10:39:16.328Z,9.40
2023-04-08T10:42:17.768Z,11.17
2023-04-08T10:45:19.329Z,10.33
2023-04-08T10:48:22.828Z,10.93
2023-04-08T10:51:24.517Z,10.27
2023-04-08T10:54:27.046Z,9.90
2023-04-08T10:57:28.502Z,11.53
2023-04-08T11:00:36.876Z,9.07
2023-04-08T11:03:39.485Z,9.40
2023-04-08T11:06:43.186Z,9.03
2023-04-08T11:09:44.832Z,11.77
2023-04-08T11:12:46.777Z,8.83
2023-04-08T11:15:48.294Z,9.97
2023-04-08T11:18:50.910Z,8.67
2023-04-08T11:21:53.300Z,9.10
2023-04-08T11:24:56.958Z,9.57
2023-04-08T11:27:58.522Z,13.17
2023-04-08T11:31:00.415Z,11.57
2023-04-08T11:34:01.995Z,12.17
2023-04-08T11:37:03.450Z,9.90
2023-04-08T11:40:09.562Z,10.77
2023-04-08T11:43:13.665Z,10.20
2023-04-08T11:46:15.931Z,10.50
2023-04-08T11:49:17.418Z,10.17
2023-04-08T11:52:18.824Z,10.80
2023-04-08T11:55:31.910Z,11.20
2023-04-08T11:58:33.417Z,9.30
2023-04-08T12:01:34.834Z,11.33
2023-04-08T12:04:36.301Z,9.63
2023-04-08T12:07:38.137Z,10.83
2023-04-08T12:10:39.574Z,13.43
2023-04-08T12:13:41.020Z,9.23
2023-04-08T12:16:42.627Z,8.87
2023-04-08T12:19:44.188Z,9.13
2023-04-08T12:22:45.778Z,9.73
2023-04-08T12:25:47.356Z,7.80
2023-04-08T12:28:48.826Z,9.40
2023-04-08T12:31:50.523Z,9.10
2023-04-08T12:34:52.317Z,7.23
2023-04-08T12:37:54.082Z,6.23
2023-04-08T12:40:56.030Z,7.63
2023-04-08T12:43:57.417Z,7.07
2023-04-08T12:46:58.894Z,6.50
2023-04-08T12:50:00.273Z,6.20
2023-04-08T12:53:01.639Z,7.00
2023-04-08T12:56:03.093Z,6.53
2023-04-08T12:59:04.677Z,10.37
2023-04-08T13:02:06.082Z,6.00
2023-04-08T13:05:07.743Z,9.13
2023-04-08T13:08:09.174Z,7.07
2023-04-08T13:11:10.975Z,8.77
2023-04-08T13:14:13.629Z,7.57
2023-04-08T13:17:15.020Z,7.83
2023-04-08T13:20:16.762Z,6.87
2023-04-08T13:23:18.143Z,8.07
2023-04-08T13:26:19.521Z,7.47
2023-04-08T13:29:20.938Z,5.87
2023-04-08T13:32:22.347Z,6.70
2023-04-08T13:35:23.783Z,9.07
2023-04-08T13:38:25.361Z,7.03
2023-04-08T13:41:28.072Z,7.43
2023-04-08T13:44:29.542Z,6.57
2023-04-08T13:47:31.141Z,7.37
2023-04-08T13:50:32.676Z,6.90
2023-04-08T13:53:34.061Z,8.13
2023-04-08T13:56:35.638Z,7.10
2023-04-08T13:59:37.093Z,6.63
2023-04-08T14:02:38.647Z,6.63
2023-04-08T14:05:40.358Z,7.17
2023-04-08T14:08:42.736Z,5.67
2023-04-08T14:11:44.192Z,5.87
2023-04-08T14:14:45.621Z,9.27
2023-04-08T14:17:47.211Z,6.47
2023-04-08T14:20:48.657Z,8.50
2023-04-08T14:23:50.216Z,7.07
2023-04-08T14:26:52.074Z,5.53
2023-04-08T14:29:54.154Z,5.70
2023-04-08T14:32:56.469Z,5.30
2023-04-08T14:35:59.743Z,4.63
2023-04-08T14:39:02.847Z,5.93
2023-04-08T14:42:04.226Z,5.07
2023-04-08T14:45:06.948Z,5.40
2023-04-08T14:48:08.392Z,5.53
2023-04-08T14:51:10.208Z,4.93
2023-04-08T14:54:16.632Z,6.27
2023-04-08T14:57:18.533Z,6.87
2023-04-08T15:00:23.003Z,5.43
2023-04-08T15:03:25.354Z,5.23
2023-04-08T15:06:31.217Z,6.43
2023-04-08T15:09:33.279Z,5.70
2023-04-08T15:12:36.282Z,7.57
2023-04-08T15:15:38.167Z,5.93
2023-04-08T15:18:40.325Z,6.63
2023-04-08T15:21:42.214Z,7.90
2023-04-08T15:24:44.269Z,5.37
2023-04-08T15:27:47.099Z,5.43
2023-04-08T15:30:49.813Z,5.77
2023-04-08T15:33:52.247Z,7.07
2023-04-08T15:36:56.922Z,5.30
2023-04-08T15:39:58.976Z,5.27
2023-04-08T15:43:00.856Z,6.23
2023-04-08T15:46:02.657Z,5.70
2023-04-08T15:49:04.038Z,5.67
2023-04-08T15:52:06.438Z,5.40
2023-04-08T15:55:08.534Z,5.67
2023-04-08T15:58:10.006Z,6.00
2023-04-08T16:01:12.514Z,5.63
2023-04-08T16:04:14.995Z,6.03
2023-04-08T16:07:16.671Z,8.00
2023-04-08T16:10:18.485Z,4.83
2023-04-08T16:13:20.338Z,5.10
2023-04-08T16:16:23.064Z,5.47
2023-04-08T16:19:24.532Z,5.30
2023-04-08T16:22:29.088Z,3.67
2023-04-08T16:25:31.767Z,3.30
2023-04-08T16:28:34.273Z,4.03
2023-04-08T16:31:36.808Z,4.33
2023-04-08T16:34:39.203Z,5.27
2023-04-08T16:37:41.045Z,6.43
2023-04-08T16:40:43.087Z,4.00
2023-04-08T16:43:44.776Z,3.90
2023-04-08T16:46:47.089Z,3.87
2023-04-08T16:49:48.468Z,5.87
2023-04-08T16:52:50.458Z,4.03
2023-04-08T16:55:52.519Z,4.13
2023-04-08T16:58:54.071Z,4.73
2023-04-08T17:01:57.247Z,4.70
2023-04-08T17:04:59.130Z,4.13
2023-04-08T17:08:00.899Z,4.93
2023-04-08T17:11:07.161Z,4.40
2023-04-08T17:14:10.374Z,6.73
2023-04-08T17:17:12.352Z,4.30
2023-04-08T17:20:16.777Z,7.40
2023-04-08T17:23:18.611Z,4.93
2023-04-08T17:26:22.077Z,4.10
2023-04-08T17:29:25.391Z,5.17
2023-04-08T17:32:27.477Z,5.03
2023-04-08T17:35:29.259Z,4.40
2023-04-08T17:38:32.086Z,5.47
2023-04-08T17:41:40.083Z,5.27
2023-04-08T17:44:44.549Z,5.27
2023-04-08T17:47:46.525Z,5.17
2023-04-08T17:50:48.361Z,6.20
2023-04-08T17:53:50.400Z,5.00
2023-04-08T17:56:51.941Z,5.00
2023-04-08T17:59:53.307Z,5.10
2023-04-08T18:02:55.206Z,4.37
2023-04-08T18:05:57.734Z,4.90
2023-04-08T18:09:00.632Z,5.80
2023-04-08T18:12:02.566Z,4.80
2023-04-08T18:15:04.663Z,5.00
2023-04-08T18:18:06.531Z,4.77
2023-04-08T18:21:08.505Z,5.67
2023-04-08T18:24:10.295Z,4.40
2023-04-08T18:27:12.890Z,4.97
2023-04-08T18:30:15.434Z,6.77
2023-04-08T18:33:17.775Z,5.37
2023-04-08T18:36:19.192Z,4.80
2023-04-08T18:39:21.373Z,4.77
2023-04-08T18:42:23.439Z,5.83
2023-04-08T18:45:24.885Z,7.10
2023-04-08T18:48:27.338Z,7.87
2023-04-08T18:51:29.127Z,7.40
2023-04-08T18:54:31.467Z,4.63
2023-04-08T18:57:33.162Z,5.20
2023-04-08T19:00:36.935Z,5.10
2023-04-08T19:03:38.466Z,5.00
2023-04-08T19:06:41.860Z,5.90
2023-04-08T19:09:43.694Z,5.23
2023-04-08T19:12:46.508Z,6.27
2023-04-08T19:15:48.264Z,4.77
2023-04-08T19:18:50.273Z,4.40
2023-04-08T19:21:52.060Z,7.40
2023-04-08T19:24:55.075Z,5.60
2023-04-08T19:27:57.616Z,5.43
2023-04-08T19:31:00.259Z,5.10
2023-04-08T19:34:01.975Z,6.37
2023-04-08T19:37:04.307Z,6.57
2023-04-08T19:40:09.614Z,6.80
2023-04-08T19:43:11.881Z,7.30
2023-04-08T19:46:13.308Z,6.73
2023-04-08T19:49:14.701Z,6.10
2023-04-08T19:52:16.582Z,5.90
2023-04-08T19:55:18.572Z,7.57
2023-04-08T19:58:20.050Z,5.47
2023-04-08T20:01:25.449Z,5.50
2023-04-08T20:04:26.920Z,6.10
2023-04-08T20:07:28.774Z,5.43
2023-04-08T20:10:31.118Z,5.23
2023-04-08T20:13:32.535Z,5.03
2023-04-08T20:16:34.753Z,5.53
2023-04-08T20:19:36.631Z,5.30
2023-04-08T20:22:41.627Z,4.60
2023-04-08T20:25:43.511Z,5.30
2023-04-08T20:28:46.061Z,5.37
2023-04-08T20:31:47.929Z,5.23
2023-04-08T20:34:50.074Z,5.20
2023-04-08T20:37:51.919Z,5.90
2023-04-08T20:40:53.774Z,5.30
2023-04-08T20:43:55.928Z,7.07
2023-04-08T20:46:58.100Z,6.53
2023-04-08T20:50:00.646Z,6.10
2023-04-08T20:53:02.891Z,4.83
2023-04-08T20:56:05.075Z,7.07
2023-04-08T20:59:07.494Z,6.33
2023-04-08T21:02:10.161Z,5.17
2023-04-08T21:05:12.503Z,7.07
2023-04-08T21:08:36.285Z,5.13
2023-04-08T21:11:38.091Z,6.10
2023-04-08T21:14:40.024Z,6.23
2023-04-08T21:17:41.842Z,5.80
2023-04-08T21:21:05.427Z,5.40
2023-04-08T21:24:07.639Z,5.10
2023-04-08T21:27:09.683Z,5.20
2023-04-08T21:30:11.869Z,5.03
2023-04-08T21:33:13.466Z,5.33
2023-04-08T21:36:17.402Z,6.63
2023-04-08T21:39:19.267Z,5.37
2023-04-08T21:42:22.766Z,6.70
2023-04-08T21:45:24.786Z,6.47
2023-04-08T21:48:26.621Z,6.20
2023-04-08T21:51:28.615Z,7.83
2023-04-08T21:54:30.489Z,7.33
2023-04-08T21:57:33.019Z,6.33
2023-04-08T22:00:34.753Z,7.93
2023-04-08T22:03:36.722Z,8.07
2023-04-08T22:06:38.671Z,7.37
2023-04-08T22:09:40.844Z,8.23
2023-04-08T22:12:42.670Z,8.77
2023-04-08T22:15:44.439Z,7.67
2023-04-08T22:18:46.604Z,6.77
2023-04-08T22:21:50.886Z,7.33
2023-04-08T22:24:52.775Z,7.50
2023-04-08T22:27:54.542Z,7.80
2023-04-08T22:30:56.348Z,8.57
2023-04-08T22:33:58.768Z,7.60
2023-04-08T22:37:00.965Z,6.43
2023-04-08T22:40:02.735Z,9.97
2023-04-08T22:43:04.565Z,7.33
2023-04-08T22:46:06.384Z,9.30
2023-04-08T22:49:08.170Z,7.60
2023-04-08T22:52:10.678Z,8.40
2023-04-08T22:55:12.498Z,7.77
2023-04-08T22:58:14.746Z,8.17
2023-04-08T23:01:18.029Z,8.57
2023-04-08T23:04:19.919Z,6.73
2023-04-08T23:07:22.283Z,7.60
2023-04-08T23:10:24.066Z,7.90
2023-04-08T23:13:27.055Z,7.70
2023-04-08T23:16:50.255Z,7.80
2023-04-08T23:19:52.163Z,7.73
2023-04-08T23:22:54.007Z,6.97
2023-04-08T23:26:18.892Z,8.90
2023-04-08T23:29:20.671Z,6.87
2023-04-08T23:32:22.461Z,7.57
2023-04-08T23:35:24.254Z,7.60
2023-04-08T23:38:26.487Z,7.43
2023-04-08T23:41:28.686Z,7.17
2023-04-08T23:44:30.101Z,8.80
2023-04-08T23:47:31.919Z,7.37
2023-04-08T23:50:33.712Z,7.13
2023-04-08T23:53:35.772Z,7.07
2023-04-08T23:56:40.273Z,6.70
2023-04-08T23:59:41.681Z,7.23
